sensor_id;sensor_type;location;lat;lon;timestamp;P1;durP1;ratioP1;P2;durP2;ratioP2
37859;SDS011;23698;52.014;5.190;2024-01-11T00:00:34;15.50;;;6.35;;
37859;SDS011;23698;52.014;5.190;2024-01-11T00:03:21;15.98;;;7.43;;
37859;SDS011;23698;52.014;5.190;2024-01-11T00:06:08;17.63;;;7.15;;
37859;SDS011;23698;52.014;5.190;2024-01-11T00:08:55;20.30;;;7.38;;
37859;SDS011;23698;52.014;5.190;2024-01-11T00:11:41;15.48;;;6.10;;
37859;SDS011;23698;52.014;5.190;2024-01-11T00:14:29;17.65;;;7.47;;
37859;SDS011;23698;52.014;5.190;2024-01-11T00:17:16;14.15;;;6.43;;
37859;SDS011;23698;52.014;5.190;2024-01-11T00:20:03;16.85;;;7.20;;
37859;SDS011;23698;52.014;5.190;2024-01-11T00:22:50;18.10;;;7.28;;
37859;SDS011;23698;52.014;5.190;2024-01-11T00:25:37;17.77;;;7.35;;
37859;SDS011;23698;52.014;5.190;2024-01-11T00:28:24;19.98;;;7.80;;
37859;SDS011;23698;52.014;5.190;2024-01-11T00:31:12;17.65;;;6.65;;
37859;SDS011;23698;52.014;5.190;2024-01-11T00:33:59;17.08;;;7.70;;
37859;SDS011;23698;52.014;5.190;2024-01-11T00:36:46;18.38;;;7.93;;
37859;SDS011;23698;52.014;5.190;2024-01-11T00:39:32;15.88;;;7.22;;
37859;SDS011;23698;52.014;5.190;2024-01-11T00:42:19;19.65;;;7.00;;
37859;SDS011;23698;52.014;5.190;2024-01-11T00:45:06;17.33;;;7.45;;
37859;SDS011;23698;52.014;5.190;2024-01-11T00:47:54;15.45;;;7.53;;
37859;SDS011;23698;52.014;5.190;2024-01-11T00:50:41;16.92;;;8.00;;
37859;SDS011;23698;52.014;5.190;2024-01-11T00:53:27;18.13;;;7.45;;
37859;SDS011;23698;52.014;5.190;2024-01-11T00:56:16;17.33;;;7.65;;
37859;SDS011;23698;52.014;5.190;2024-01-11T00:59:03;18.75;;;7.82;;
37859;SDS011;23698;52.014;5.190;2024-01-11T01:01:50;22.20;;;8.05;;
37859;SDS011;23698;52.014;5.190;2024-01-11T01:04:38;16.80;;;7.57;;
37859;SDS011;23698;52.014;5.190;2024-01-11T01:07:25;15.25;;;7.68;;
37859;SDS011;23698;52.014;5.190;2024-01-11T01:10:11;17.48;;;7.88;;
37859;SDS011;23698;52.014;5.190;2024-01-11T01:12:58;18.02;;;8.13;;
37859;SDS011;23698;52.014;5.190;2024-01-11T01:15:45;17.48;;;7.40;;
37859;SDS011;23698;52.014;5.190;2024-01-11T01:18:31;15.52;;;7.50;;
37859;SDS011;23698;52.014;5.190;2024-01-11T01:21:19;16.85;;;8.10;;
37859;SDS011;23698;52.014;5.190;2024-01-11T01:24:06;17.40;;;7.53;;
37859;SDS011;23698;52.014;5.190;2024-01-11T01:26:52;17.02;;;8.52;;
37859;SDS011;23698;52.014;5.190;2024-01-11T01:29:39;13.32;;;6.43;;
37859;SDS011;23698;52.014;5.190;2024-01-11T01:32:26;18.90;;;7.28;;
37859;SDS011;23698;52.014;5.190;2024-01-11T01:35:13;16.25;;;7.40;;
37859;SDS011;23698;52.014;5.190;2024-01-11T01:38:01;17.98;;;7.28;;
37859;SDS011;23698;52.014;5.190;2024-01-11T01:40:48;18.45;;;7.80;;
37859;SDS011;23698;52.014;5.190;2024-01-11T01:43:34;16.55;;;7.07;;
37859;SDS011;23698;52.014;5.190;2024-01-11T01:46:22;19.58;;;7.50;;
37859;SDS011;23698;52.014;5.190;2024-01-11T01:49:09;20.67;;;8.25;;
37859;SDS011;23698;52.014;5.190;2024-01-11T01:51:58;13.90;;;7.20;;
37859;SDS011;23698;52.014;5.190;2024-01-11T01:54:45;17.42;;;7.60;;
37859;SDS011;23698;52.014;5.190;2024-01-11T01:57:33;21.45;;;8.10;;
37859;SDS011;23698;52.014;5.190;2024-01-11T02:00:21;15.18;;;6.95;;
37859;SDS011;23698;52.014;5.190;2024-01-11T02:03:07;19.75;;;8.38;;
37859;SDS011;23698;52.014;5.190;2024-01-11T02:05:54;19.10;;;8.38;;
37859;SDS011;23698;52.014;5.190;2024-01-11T02:08:42;13.18;;;6.28;;
37859;SDS011;23698;52.014;5.190;2024-01-11T02:11:30;18.33;;;7.50;;
37859;SDS011;23698;52.014;5.190;2024-01-11T02:14:18;19.13;;;7.35;;
37859;SDS011;23698;52.014;5.190;2024-01-11T02:17:05;17.33;;;7.80;;
37859;SDS011;23698;52.014;5.190;2024-01-11T02:19:52;20.40;;;9.10;;
37859;SDS011;23698;52.014;5.190;2024-01-11T02:22:38;18.88;;;8.07;;
37859;SDS011;23698;52.014;5.190;2024-01-11T02:25:30;18.67;;;8.32;;
37859;SDS011;23698;52.014;5.190;2024-01-11T02:28:17;19.55;;;7.32;;
37859;SDS011;23698;52.014;5.190;2024-01-11T02:31:03;19.90;;;8.55;;
37859;SDS011;23698;52.014;5.190;2024-01-11T02:33:50;18.05;;;7.95;;
37859;SDS011;23698;52.014;5.190;2024-01-11T02:36:38;16.20;;;7.88;;
37859;SDS011;23698;52.014;5.190;2024-01-11T02:39:25;23.45;;;8.88;;
37859;SDS011;23698;52.014;5.190;2024-01-11T02:42:14;18.83;;;7.30;;
37859;SDS011;23698;52.014;5.190;2024-01-11T02:45:00;21.73;;;9.30;;
37859;SDS011;23698;52.014;5.190;2024-01-11T02:47:49;24.92;;;9.00;;
37859;SDS011;23698;52.014;5.190;2024-01-11T02:50:36;19.55;;;8.68;;
37859;SDS011;23698;52.014;5.190;2024-01-11T02:53:22;19.10;;;8.73;;
37859;SDS011;23698;52.014;5.190;2024-01-11T02:56:09;18.20;;;7.90;;
37859;SDS011;23698;52.014;5.190;2024-01-11T02:58:58;18.98;;;8.65;;
37859;SDS011;23698;52.014;5.190;2024-01-11T03:01:44;23.83;;;9.27;;
37859;SDS011;23698;52.014;5.190;2024-01-11T03:04:31;21.55;;;8.98;;
37859;SDS011;23698;52.014;5.190;2024-01-11T03:07:17;19.67;;;7.90;;
37859;SDS011;23698;52.014;5.190;2024-01-11T03:10:04;22.38;;;8.68;;
37859;SDS011;23698;52.014;5.190;2024-01-11T03:12:51;23.75;;;9.52;;
37859;SDS011;23698;52.014;5.190;2024-01-11T03:15:39;22.70;;;8.85;;
37859;SDS011;23698;52.014;5.190;2024-01-11T03:18:25;23.75;;;9.27;;
37859;SDS011;23698;52.014;5.190;2024-01-11T03:21:12;21.58;;;8.77;;
37859;SDS011;23698;52.014;5.190;2024-01-11T03:23:58;21.63;;;9.10;;
37859;SDS011;23698;52.014;5.190;2024-01-11T03:26:45;20.60;;;8.50;;
37859;SDS011;23698;52.014;5.190;2024-01-11T03:29:34;22.35;;;9.48;;
37859;SDS011;23698;52.014;5.190;2024-01-11T03:32:22;22.77;;;9.50;;
37859;SDS011;23698;52.014;5.190;2024-01-11T03:35:09;21.63;;;9.40;;
37859;SDS011;23698;52.014;5.190;2024-01-11T03:37:56;19.83;;;8.48;;
37859;SDS011;23698;52.014;5.190;2024-01-11T03:40:42;19.85;;;9.15;;
37859;SDS011;23698;52.014;5.190;2024-01-11T03:43:29;25.02;;;9.57;;
37859;SDS011;23698;52.014;5.190;2024-01-11T03:46:16;24.75;;;10.82;;
37859;SDS011;23698;52.014;5.190;2024-01-11T03:49:04;21.90;;;9.65;;
37859;SDS011;23698;52.014;5.190;2024-01-11T03:51:52;25.58;;;10.32;;
37859;SDS011;23698;52.014;5.190;2024-01-11T03:54:39;23.40;;;10.90;;
37859;SDS011;23698;52.014;5.190;2024-01-11T03:57:26;28.40;;;10.00;;
37859;SDS011;23698;52.014;5.190;2024-01-11T04:00:12;29.55;;;11.32;;
37859;SDS011;23698;52.014;5.190;2024-01-11T04:03:00;24.65;;;11.40;;
37859;SDS011;23698;52.014;5.190;2024-01-11T04:05:49;23.13;;;10.05;;
37859;SDS011;23698;52.014;5.190;2024-01-11T04:08:35;29.73;;;10.82;;
37859;SDS011;23698;52.014;5.190;2024-01-11T04:11:22;25.52;;;10.52;;
37859;SDS011;23698;52.014;5.190;2024-01-11T04:14:09;30.27;;;11.77;;
37859;SDS011;23698;52.014;5.190;2024-01-11T04:16:55;25.63;;;11.38;;
37859;SDS011;23698;52.014;5.190;2024-01-11T04:19:42;31.42;;;13.57;;
37859;SDS011;23698;52.014;5.190;2024-01-11T04:22:30;32.38;;;12.98;;
37859;SDS011;23698;52.014;5.190;2024-01-11T04:25:17;28.13;;;12.35;;
37859;SDS011;23698;52.014;5.190;2024-01-11T04:28:03;34.00;;;13.90;;
37859;SDS011;23698;52.014;5.190;2024-01-11T04:30:50;31.30;;;13.10;;
37859;SDS011;23698;52.014;5.190;2024-01-11T04:33:39;32.78;;;14.20;;
37859;SDS011;23698;52.014;5.190;2024-01-11T04:36:26;32.80;;;14.27;;
37859;SDS011;23698;52.014;5.190;2024-01-11T04:39:14;28.42;;;13.02;;
37859;SDS011;23698;52.014;5.190;2024-01-11T04:42:01;30.33;;;13.23;;
37859;SDS011;23698;52.014;5.190;2024-01-11T04:44:49;32.30;;;14.43;;
37859;SDS011;23698;52.014;5.190;2024-01-11T04:47:35;31.98;;;13.63;;
37859;SDS011;23698;52.014;5.190;2024-01-11T04:50:23;34.42;;;13.63;;
37859;SDS011;23698;52.014;5.190;2024-01-11T04:53:09;35.63;;;15.52;;
37859;SDS011;23698;52.014;5.190;2024-01-11T04:55:57;33.70;;;14.30;;
37859;SDS011;23698;52.014;5.190;2024-01-11T04:58:44;33.00;;;15.25;;
37859;SDS011;23698;52.014;5.190;2024-01-11T05:01:31;35.17;;;14.32;;
37859;SDS011;23698;52.014;5.190;2024-01-11T05:04:18;45.75;;;15.63;;
37859;SDS011;23698;52.014;5.190;2024-01-11T05:07:04;40.60;;;16.25;;
37859;SDS011;23698;52.014;5.190;2024-01-11T05:09:51;39.45;;;16.38;;
37859;SDS011;23698;52.014;5.190;2024-01-11T05:12:39;40.35;;;16.85;;
37859;SDS011;23698;52.014;5.190;2024-01-11T05:15:26;42.47;;;17.70;;
37859;SDS011;23698;52.014;5.190;2024-01-11T05:18:13;39.33;;;16.60;;
37859;SDS011;23698;52.014;5.190;2024-01-11T05:21:00;40.67;;;17.40;;
37859;SDS011;23698;52.014;5.190;2024-01-11T05:23:46;40.35;;;16.35;;
37859;SDS011;23698;52.014;5.190;2024-01-11T05:26:34;39.53;;;17.02;;
37859;SDS011;23698;52.014;5.190;2024-01-11T05:29:21;41.72;;;18.25;;
37859;SDS011;23698;52.014;5.190;2024-01-11T05:32:08;41.83;;;17.20;;
37859;SDS011;23698;52.014;5.190;2024-01-11T05:34:55;42.17;;;18.13;;
37859;SDS011;23698;52.014;5.190;2024-01-11T05:37:41;37.17;;;16.17;;
37859;SDS011;23698;52.014;5.190;2024-01-11T05:40:28;43.75;;;17.98;;
37859;SDS011;23698;52.014;5.190;2024-01-11T05:43:15;44.35;;;18.27;;
37859;SDS011;23698;52.014;5.190;2024-01-11T05:46:03;45.15;;;18.08;;
37859;SDS011;23698;52.014;5.190;2024-01-11T05:48:49;41.67;;;17.10;;
37859;SDS011;23698;52.014;5.190;2024-01-11T05:51:36;40.05;;;17.08;;
37859;SDS011;23698;52.014;5.190;2024-01-11T05:54:22;43.30;;;16.70;;
37859;SDS011;23698;52.014;5.190;2024-01-11T05:57:10;44.15;;;19.02;;
37859;SDS011;23698;52.014;5.190;2024-01-11T05:59:56;36.75;;;16.52;;
37859;SDS011;23698;52.014;5.190;2024-01-11T06:02:44;41.13;;;17.63;;
37859;SDS011;23698;52.014;5.190;2024-01-11T06:05:31;39.15;;;17.65;;
37859;SDS011;23698;52.014;5.190;2024-01-11T06:08:17;44.42;;;19.58;;
37859;SDS011;23698;52.014;5.190;2024-01-11T06:11:04;39.15;;;16.65;;
37859;SDS011;23698;52.014;5.190;2024-01-11T06:13:51;43.60;;;17.35;;
37859;SDS011;23698;52.014;5.190;2024-01-11T06:16:37;43.17;;;18.08;;
37859;SDS011;23698;52.014;5.190;2024-01-11T06:19:28;39.65;;;16.50;;
37859;SDS011;23698;52.014;5.190;2024-01-11T06:22:15;42.45;;;16.90;;
37859;SDS011;23698;52.014;5.190;2024-01-11T06:25:01;41.53;;;18.45;;
37859;SDS011;23698;52.014;5.190;2024-01-11T06:27:49;49.15;;;19.08;;
37859;SDS011;23698;52.014;5.190;2024-01-11T06:30:35;40.08;;;18.02;;
37859;SDS011;23698;52.014;5.190;2024-01-11T06:33:22;45.38;;;18.63;;
37859;SDS011;23698;52.014;5.190;2024-01-11T06:36:10;45.65;;;18.30;;
37859;SDS011;23698;52.014;5.190;2024-01-11T06:38:57;42.45;;;18.50;;
37859;SDS011;23698;52.014;5.190;2024-01-11T06:41:43;45.30;;;18.17;;
37859;SDS011;23698;52.014;5.190;2024-01-11T06:44:30;49.38;;;19.38;;
37859;SDS011;23698;52.014;5.190;2024-01-11T06:47:17;45.92;;;18.83;;
37859;SDS011;23698;52.014;5.190;2024-01-11T06:50:04;40.90;;;17.17;;
37859;SDS011;23698;52.014;5.190;2024-01-11T06:52:53;42.45;;;18.75;;
37859;SDS011;23698;52.014;5.190;2024-01-11T06:55:40;49.28;;;19.48;;
37859;SDS011;23698;52.014;5.190;2024-01-11T06:58:28;45.60;;;17.33;;
37859;SDS011;23698;52.014;5.190;2024-01-11T07:01:14;41.35;;;17.70;;
37859;SDS011;23698;52.014;5.190;2024-01-11T07:04:02;45.35;;;18.50;;
37859;SDS011;23698;52.014;5.190;2024-01-11T07:06:49;44.70;;;18.42;;
37859;SDS011;23698;52.014;5.190;2024-01-11T07:09:37;45.63;;;19.15;;
37859;SDS011;23698;52.014;5.190;2024-01-11T07:12:24;45.65;;;19.45;;
37859;SDS011;23698;52.014;5.190;2024-01-11T07:15:11;51.58;;;20.65;;
37859;SDS011;23698;52.014;5.190;2024-01-11T07:17:58;49.15;;;20.75;;
37859;SDS011;23698;52.014;5.190;2024-01-11T07:20:45;50.28;;;20.27;;
37859;SDS011;23698;52.014;5.190;2024-01-11T07:23:33;49.15;;;20.65;;
37859;SDS011;23698;52.014;5.190;2024-01-11T07:26:21;50.17;;;20.35;;
37859;SDS011;23698;52.014;5.190;2024-01-11T07:29:08;45.75;;;19.85;;
37859;SDS011;23698;52.014;5.190;2024-01-11T07:31:54;46.92;;;19.60;;
37859;SDS011;23698;52.014;5.190;2024-01-11T07:34:41;45.33;;;19.98;;
37859;SDS011;23698;52.014;5.190;2024-01-11T07:37:28;52.33;;;21.88;;
37859;SDS011;23698;52.014;5.190;2024-01-11T07:40:15;48.15;;;19.60;;
37859;SDS011;23698;52.014;5.190;2024-01-11T07:43:03;47.72;;;19.45;;
37859;SDS011;23698;52.014;5.190;2024-01-11T07:45:49;49.90;;;19.38;;
37859;SDS011;23698;52.014;5.190;2024-01-11T07:48:36;46.20;;;20.45;;
37859;SDS011;23698;52.014;5.190;2024-01-11T07:51:23;52.55;;;21.85;;
37859;SDS011;23698;52.014;5.190;2024-01-11T07:54:09;46.95;;;20.08;;
37859;SDS011;23698;52.014;5.190;2024-01-11T07:56:56;45.55;;;18.70;;
37859;SDS011;23698;52.014;5.190;2024-01-11T07:59:44;46.67;;;20.85;;
37859;SDS011;23698;52.014;5.190;2024-01-11T08:02:31;48.92;;;21.60;;
37859;SDS011;23698;52.014;5.190;2024-01-11T08:05:17;51.53;;;20.02;;
37859;SDS011;23698;52.014;5.190;2024-01-11T08:08:04;53.13;;;21.75;;
37859;SDS011;23698;52.014;5.190;2024-01-11T08:10:52;51.72;;;19.80;;
37859;SDS011;23698;52.014;5.190;2024-01-11T08:13:39;49.75;;;20.50;;
37859;SDS011;23698;52.014;5.190;2024-01-11T08:16:28;50.47;;;21.55;;
37859;SDS011;23698;52.014;5.190;2024-01-11T08:19:14;49.22;;;20.35;;
37859;SDS011;23698;52.014;5.190;2024-01-11T08:22:02;51.80;;;21.33;;
37859;SDS011;23698;52.014;5.190;2024-01-11T08:24:49;52.80;;;21.55;;
37859;SDS011;23698;52.014;5.190;2024-01-11T08:27:36;52.90;;;21.67;;
37859;SDS011;23698;52.014;5.190;2024-01-11T08:30:22;46.95;;;20.20;;
37859;SDS011;23698;52.014;5.190;2024-01-11T08:33:10;51.55;;;21.00;;
37859;SDS011;23698;52.014;5.190;2024-01-11T08:35:58;53.33;;;22.23;;
37859;SDS011;23698;52.014;5.190;2024-01-11T08:38:45;53.72;;;22.10;;
37859;SDS011;23698;52.014;5.190;2024-01-11T08:41:31;61.58;;;21.63;;
37859;SDS011;23698;52.014;5.190;2024-01-11T08:44:18;53.70;;;22.13;;
37859;SDS011;23698;52.014;5.190;2024-01-11T08:47:05;52.72;;;24.15;;
37859;SDS011;23698;52.014;5.190;2024-01-11T08:49:53;55.90;;;23.42;;
37859;SDS011;23698;52.014;5.190;2024-01-11T08:52:41;56.58;;;22.20;;
37859;SDS011;23698;52.014;5.190;2024-01-11T08:55:28;47.35;;;21.80;;
37859;SDS011;23698;52.014;5.190;2024-01-11T08:58:16;52.25;;;23.13;;
37859;SDS011;23698;52.014;5.190;2024-01-11T09:01:02;56.78;;;23.38;;
37859;SDS011;23698;52.014;5.190;2024-01-11T09:03:49;51.42;;;22.73;;
37859;SDS011;23698;52.014;5.190;2024-01-11T09:06:37;58.88;;;23.50;;
37859;SDS011;23698;52.014;5.190;2024-01-11T09:09:25;54.58;;;22.73;;
37859;SDS011;23698;52.014;5.190;2024-01-11T09:12:11;53.60;;;23.75;;
37859;SDS011;23698;52.014;5.190;2024-01-11T09:14:58;54.15;;;23.67;;
37859;SDS011;23698;52.014;5.190;2024-01-11T09:17:45;58.72;;;23.52;;
37859;SDS011;23698;52.014;5.190;2024-01-11T09:20:31;50.88;;;22.20;;
37859;SDS011;23698;52.014;5.190;2024-01-11T09:23:19;53.35;;;22.15;;
37859;SDS011;23698;52.014;5.190;2024-01-11T09:26:06;45.05;;;20.42;;
37859;SDS011;23698;52.014;5.190;2024-01-11T09:28:52;52.22;;;21.35;;
37859;SDS011;23698;52.014;5.190;2024-01-11T09:31:39;46.53;;;20.80;;
37859;SDS011;23698;52.014;5.190;2024-01-11T09:34:27;52.35;;;20.63;;
37859;SDS011;23698;52.014;5.190;2024-01-11T09:37:13;44.55;;;20.65;;
37859;SDS011;23698;52.014;5.190;2024-01-11T09:40:02;49.45;;;22.10;;
37859;SDS011;23698;52.014;5.190;2024-01-11T09:42:53;45.80;;;20.45;;
37859;SDS011;23698;52.014;5.190;2024-01-11T09:45:40;47.13;;;20.33;;
37859;SDS011;23698;52.014;5.190;2024-01-11T09:48:26;46.38;;;20.15;;
37859;SDS011;23698;52.014;5.190;2024-01-11T09:51:13;46.17;;;20.50;;
37859;SDS011;23698;52.014;5.190;2024-01-11T09:54:01;42.22;;;19.75;;
37859;SDS011;23698;52.014;5.190;2024-01-11T09:56:49;43.63;;;19.58;;
37859;SDS011;23698;52.014;5.190;2024-01-11T09:59:36;47.78;;;18.92;;
37859;SDS011;23698;52.014;5.190;2024-01-11T10:02:23;45.17;;;19.35;;
37859;SDS011;23698;52.014;5.190;2024-01-11T10:05:12;39.95;;;18.73;;
37859;SDS011;23698;52.014;5.190;2024-01-11T10:08:00;42.13;;;18.48;;
37859;SDS011;23698;52.014;5.190;2024-01-11T10:10:46;41.97;;;17.40;;
37859;SDS011;23698;52.014;5.190;2024-01-11T10:13:35;38.53;;;16.50;;
37859;SDS011;23698;52.014;5.190;2024-01-11T10:16:23;41.13;;;16.70;;
37859;SDS011;23698;52.014;5.190;2024-01-11T10:19:10;40.13;;;16.45;;
37859;SDS011;23698;52.014;5.190;2024-01-11T10:21:59;40.58;;;16.92;;
37859;SDS011;23698;52.014;5.190;2024-01-11T10:24:45;40.20;;;16.65;;
37859;SDS011;23698;52.014;5.190;2024-01-11T10:27:32;40.72;;;16.80;;
37859;SDS011;23698;52.014;5.190;2024-01-11T10:30:20;42.97;;;17.15;;
37859;SDS011;23698;52.014;5.190;2024-01-11T10:33:08;35.70;;;15.38;;
37859;SDS011;23698;52.014;5.190;2024-01-11T10:35:56;41.10;;;16.27;;
37859;SDS011;23698;52.014;5.190;2024-01-11T10:38:42;37.88;;;15.40;;
37859;SDS011;23698;52.014;5.190;2024-01-11T10:41:38;38.88;;;15.68;;
37859;SDS011;23698;52.014;5.190;2024-01-11T10:44:26;38.08;;;15.52;;
37859;SDS011;23698;52.014;5.190;2024-01-11T10:47:17;43.80;;;16.35;;
37859;SDS011;23698;52.014;5.190;2024-01-11T10:50:06;43.08;;;16.77;;
37859;SDS011;23698;52.014;5.190;2024-01-11T10:53:02;39.17;;;15.95;;
37859;SDS011;23698;52.014;5.190;2024-01-11T10:55:49;37.88;;;15.18;;
37859;SDS011;23698;52.014;5.190;2024-01-11T10:58:36;42.00;;;16.23;;
37859;SDS011;23698;52.014;5.190;2024-01-11T11:01:26;34.75;;;15.30;;
37859;SDS011;23698;52.014;5.190;2024-01-11T11:04:14;39.53;;;16.13;;
37859;SDS011;23698;52.014;5.190;2024-01-11T11:07:02;35.38;;;15.40;;
37859;SDS011;23698;52.014;5.190;2024-01-11T11:09:52;38.75;;;15.05;;
37859;SDS011;23698;52.014;5.190;2024-01-11T11:12:40;36.45;;;14.35;;
37859;SDS011;23698;52.014;5.190;2024-01-11T11:15:28;34.60;;;14.60;;
37859;SDS011;23698;52.014;5.190;2024-01-11T11:18:14;32.97;;;14.10;;
37859;SDS011;23698;52.014;5.190;2024-01-11T11:21:07;34.03;;;14.63;;
37859;SDS011;23698;52.014;5.190;2024-01-11T11:23:55;40.13;;;15.00;;
37859;SDS011;23698;52.014;5.190;2024-01-11T11:26:42;37.30;;;14.52;;
37859;SDS011;23698;52.014;5.190;2024-01-11T11:29:29;35.10;;;14.43;;
37859;SDS011;23698;52.014;5.190;2024-01-11T11:32:16;34.40;;;14.48;;
37859;SDS011;23698;52.014;5.190;2024-01-11T11:35:03;34.70;;;14.27;;
37859;SDS011;23698;52.014;5.190;2024-01-11T11:37:55;31.90;;;13.52;;
37859;SDS011;23698;52.014;5.190;2024-01-11T11:40:43;30.88;;;13.40;;
37859;SDS011;23698;52.014;5.190;2024-01-11T11:43:32;32.95;;;13.52;;
37859;SDS011;23698;52.014;5.190;2024-01-11T11:46:19;33.15;;;14.77;;
37859;SDS011;23698;52.014;5.190;2024-01-11T11:49:06;30.27;;;13.70;;
37859;SDS011;23698;52.014;5.190;2024-01-11T11:51:53;31.10;;;13.23;;
37859;SDS011;23698;52.014;5.190;2024-01-11T11:54:43;27.80;;;11.65;;
37859;SDS011;23698;52.014;5.190;2024-01-11T11:57:30;33.03;;;13.57;;
37859;SDS011;23698;52.014;5.190;2024-01-11T12:00:17;29.83;;;13.05;;
37859;SDS011;23698;52.014;5.190;2024-01-11T12:03:05;25.88;;;12.07;;
37859;SDS011;23698;52.014;5.190;2024-01-11T12:05:52;28.48;;;12.85;;
37859;SDS011;23698;52.014;5.190;2024-01-11T12:08:40;29.65;;;12.70;;
37859;SDS011;23698;52.014;5.190;2024-01-11T12:11:29;30.17;;;12.50;;
37859;SDS011;23698;52.014;5.190;2024-01-11T12:14:18;30.23;;;13.25;;
37859;SDS011;23698;52.014;5.190;2024-01-11T12:17:05;28.58;;;12.93;;
37859;SDS011;23698;52.014;5.190;2024-01-11T12:19:53;28.13;;;12.00;;
37859;SDS011;23698;52.014;5.190;2024-01-11T12:22:41;23.50;;;11.85;;
37859;SDS011;23698;52.014;5.190;2024-01-11T12:25:27;25.58;;;11.48;;
37859;SDS011;23698;52.014;5.190;2024-01-11T12:28:16;24.63;;;11.20;;
37859;SDS011;23698;52.014;5.190;2024-01-11T12:31:03;24.42;;;11.13;;
37859;SDS011;23698;52.014;5.190;2024-01-11T12:33:50;23.88;;;12.13;;
37859;SDS011;23698;52.014;5.190;2024-01-11T12:36:37;24.25;;;11.45;;
37859;SDS011;23698;52.014;5.190;2024-01-11T12:39:24;22.33;;;11.18;;
37859;SDS011;23698;52.014;5.190;2024-01-11T12:42:11;20.58;;;10.50;;
37859;SDS011;23698;52.014;5.190;2024-01-11T12:45:00;23.10;;;11.05;;
37859;SDS011;23698;52.014;5.190;2024-01-11T12:47:47;21.60;;;10.93;;
37859;SDS011;23698;52.014;5.190;2024-01-11T12:50:34;19.38;;;10.48;;
37859;SDS011;23698;52.014;5.190;2024-01-11T12:53:21;18.23;;;9.80;;
37859;SDS011;23698;52.014;5.190;2024-01-11T12:56:11;19.65;;;10.05;;
37859;SDS011;23698;52.014;5.190;2024-01-11T12:59:07;22.08;;;10.55;;
37859;SDS011;23698;52.014;5.190;2024-01-11T13:01:56;21.88;;;10.65;;
37859;SDS011;23698;52.014;5.190;2024-01-11T13:04:45;23.42;;;10.70;;
37859;SDS011;23698;52.014;5.190;2024-01-11T13:07:31;22.73;;;10.18;;
37859;SDS011;23698;52.014;5.190;2024-01-11T13:10:19;18.95;;;10.25;;
37859;SDS011;23698;52.014;5.190;2024-01-11T13:13:05;16.77;;;9.38;;
37859;SDS011;23698;52.014;5.190;2024-01-11T13:15:54;23.27;;;11.90;;
37859;SDS011;23698;52.014;5.190;2024-01-11T13:18:42;21.73;;;10.75;;
37859;SDS011;23698;52.014;5.190;2024-01-11T13:21:29;17.63;;;9.68;;
37859;SDS011;23698;52.014;5.190;2024-01-11T13:24:15;16.42;;;9.05;;
37859;SDS011;23698;52.014;5.190;2024-01-11T13:27:02;18.83;;;9.35;;
37859;SDS011;23698;52.014;5.190;2024-01-11T13:29:49;20.73;;;9.07;;
37859;SDS011;23698;52.014;5.190;2024-01-11T13:32:36;22.65;;;10.13;;
37859;SDS011;23698;52.014;5.190;2024-01-11T13:35:24;22.17;;;9.95;;
37859;SDS011;23698;52.014;5.190;2024-01-11T13:38:11;22.60;;;9.82;;
37859;SDS011;23698;52.014;5.190;2024-01-11T13:40:58;24.50;;;10.60;;
37859;SDS011;23698;52.014;5.190;2024-01-11T13:43:44;21.98;;;10.80;;
37859;SDS011;23698;52.014;5.190;2024-01-11T13:46:32;25.90;;;11.48;;
37859;SDS011;23698;52.014;5.190;2024-01-11T13:49:18;24.98;;;11.68;;
37859;SDS011;23698;52.014;5.190;2024-01-11T13:52:09;26.30;;;11.63;;
37859;SDS011;23698;52.014;5.190;2024-01-11T13:54:55;24.02;;;11.35;;
37859;SDS011;23698;52.014;5.190;2024-01-11T13:57:42;21.00;;;11.23;;
37859;SDS011;23698;52.014;5.190;2024-01-11T14:00:29;23.17;;;10.95;;
37859;SDS011;23698;52.014;5.190;2024-01-11T14:03:16;19.67;;;9.90;;
37859;SDS011;23698;52.014;5.190;2024-01-11T14:06:02;22.23;;;11.00;;
37859;SDS011;23698;52.014;5.190;2024-01-11T14:08:51;22.88;;;11.02;;
37859;SDS011;23698;52.014;5.190;2024-01-11T14:11:38;20.98;;;10.18;;
37859;SDS011;23698;52.014;5.190;2024-01-11T14:14:25;28.67;;;12.13;;
37859;SDS011;23698;52.014;5.190;2024-01-11T14:17:11;22.40;;;10.35;;
37859;SDS011;23698;52.014;5.190;2024-01-11T14:19:58;18.83;;;9.50;;
37859;SDS011;23698;52.014;5.190;2024-01-11T14:22:46;28.63;;;10.88;;
37859;SDS011;23698;52.014;5.190;2024-01-11T14:25:36;24.15;;;10.27;;
37859;SDS011;23698;52.014;5.190;2024-01-11T14:28:23;25.75;;;12.70;;
37859;SDS011;23698;52.014;5.190;2024-01-11T14:31:11;37.17;;;17.20;;
37859;SDS011;23698;52.014;5.190;2024-01-11T14:33:58;29.65;;;13.07;;
37859;SDS011;23698;52.014;5.190;2024-01-11T14:36:45;27.50;;;12.13;;
37859;SDS011;23698;52.014;5.190;2024-01-11T14:39:35;30.13;;;13.63;;
37859;SDS011;23698;52.014;5.190;2024-01-11T14:42:23;28.45;;;14.13;;
37859;SDS011;23698;52.014;5.190;2024-01-11T14:45:09;25.25;;;11.90;;
37859;SDS011;23698;52.014;5.190;2024-01-11T14:47:56;24.38;;;11.60;;
37859;SDS011;23698;52.014;5.190;2024-01-11T14:50:43;28.73;;;12.57;;
37859;SDS011;23698;52.014;5.190;2024-01-11T14:53:30;26.25;;;12.18;;
37859;SDS011;23698;52.014;5.190;2024-01-11T14:56:17;28.30;;;12.88;;
37859;SDS011;23698;52.014;5.190;2024-01-11T14:59:05;26.38;;;11.70;;
37859;SDS011;23698;52.014;5.190;2024-01-11T15:01:52;26.50;;;10.95;;
37859;SDS011;23698;52.014;5.190;2024-01-11T15:04:39;25.00;;;12.13;;
37859;SDS011;23698;52.014;5.190;2024-01-11T15:07:26;26.70;;;11.80;;
37859;SDS011;23698;52.014;5.190;2024-01-11T15:10:12;24.02;;;11.10;;
37859;SDS011;23698;52.014;5.190;2024-01-11T15:12:59;25.95;;;12.38;;
37859;SDS011;23698;52.014;5.190;2024-01-11T15:15:47;24.40;;;12.48;;
37859;SDS011;23698;52.014;5.190;2024-01-11T15:18:34;30.45;;;14.25;;
37859;SDS011;23698;52.014;5.190;2024-01-11T15:21:21;26.30;;;12.13;;
37859;SDS011;23698;52.014;5.190;2024-01-11T15:24:07;25.83;;;12.60;;
37859;SDS011;23698;52.014;5.190;2024-01-11T15:26:54;25.08;;;11.70;;
37859;SDS011;23698;52.014;5.190;2024-01-11T15:29:41;25.48;;;12.30;;
37859;SDS011;23698;52.014;5.190;2024-01-11T15:32:29;26.63;;;13.02;;
37859;SDS011;23698;52.014;5.190;2024-01-11T15:35:16;27.80;;;12.52;;
37859;SDS011;23698;52.014;5.190;2024-01-11T15:38:03;24.65;;;12.00;;
37859;SDS011;23698;52.014;5.190;2024-01-11T15:40:50;27.08;;;13.32;;
37859;SDS011;23698;52.014;5.190;2024-01-11T15:43:36;26.98;;;13.70;;
37859;SDS011;23698;52.014;5.190;2024-01-11T15:46:24;27.48;;;12.68;;
37859;SDS011;23698;52.014;5.190;2024-01-11T15:49:12;32.63;;;15.48;;
37859;SDS011;23698;52.014;5.190;2024-01-11T15:51:59;32.40;;;14.48;;
37859;SDS011;23698;52.014;5.190;2024-01-11T15:54:45;30.58;;;14.35;;
37859;SDS011;23698;52.014;5.190;2024-01-11T15:57:32;27.35;;;13.73;;
37859;SDS011;23698;52.014;5.190;2024-01-11T16:00:19;28.27;;;13.90;;
37859;SDS011;23698;52.014;5.190;2024-01-11T16:03:05;33.72;;;15.02;;
37859;SDS011;23698;52.014;5.190;2024-01-11T16:05:53;30.67;;;14.13;;
37859;SDS011;23698;52.014;5.190;2024-01-11T16:08:40;29.55;;;14.25;;
37859;SDS011;23698;52.014;5.190;2024-01-11T16:11:27;32.85;;;14.40;;
37859;SDS011;23698;52.014;5.190;2024-01-11T16:14:14;29.52;;;14.35;;
37859;SDS011;23698;52.014;5.190;2024-01-11T16:17:01;28.42;;;14.60;;
37859;SDS011;23698;52.014;5.190;2024-01-11T16:19:48;29.65;;;14.68;;
37859;SDS011;23698;52.014;5.190;2024-01-11T16:22:36;30.20;;;15.38;;